LLBG/TLV METAR and TAF weather

Enter ICAO airport designator
Station Type Date Time Source
LLBG METAR 2019/12/05 22:50 UTC NOAA

LLBG 052250Z 27007KT 9999 SCT030 SCT045 19/13 Q1017 NOSIG


Station Type Date Time Source
LLBG Decoded METAR 2019/12/05 22:50 UTC NOAA

Ben-Gurion International Airport, Israel (LLBG) 32-00N 034-54E 49M
Dec 05, 2019 - 05:50 PM EST / 2019.12.05 2250 UTC
Wind: from the W (270 degrees) at 8 MPH (7 KT):0
Visibility: greater than 7 mile(s):0
Sky conditions: partly cloudy
Temperature: 66 F (19 C)
Dew Point: 55 F (13 C)
Relative Humidity: 68%
Pressure (altimeter): 30.03 in. Hg (1017 hPa)
ob: LLBG 052250Z 27007KT 9999 SCT030 SCT045 19/13 Q1017 NOSIG
cycle: 23

Station Type Date Time Source
LLBG TAF 2019/12/05 18:15 UTC NOAA

TAF TAF LLBG 051705Z 0518/0618 30008KT 9999 SCT040
TEMPO 0518/0607 RA BKN030 PROB40 0607/0618 30012KT -RA BKN030 TX19/0612Z TN15/0604Z

Example: see airport list